createdAt,value
2024-01-24T00:00:07.145Z,726.00
2024-01-24T00:01:07.225Z,720.00
2024-01-24T00:02:07.135Z,713.00
2024-01-24T00:03:07.156Z,713.00
2024-01-24T00:04:07.232Z,718.00
2024-01-24T00:05:07.157Z,707.00
2024-01-24T00:06:07.098Z,703.00
2024-01-24T00:07:07.098Z,707.00
2024-01-24T00:08:07.077Z,700.00
2024-01-24T00:09:07.115Z,704.00
2024-01-24T00:10:07.158Z,698.00
2024-01-24T00:11:07.071Z,697.00
2024-01-24T00:12:07.111Z,692.00
2024-01-24T00:13:07.101Z,695.00
2024-01-24T00:14:07.100Z,692.00
2024-01-24T00:15:07.165Z,690.00
2024-01-24T00:16:07.194Z,693.00
2024-01-24T00:17:07.234Z,696.00
2024-01-24T00:18:07.384Z,689.00
2024-01-24T00:19:07.369Z,687.00
2024-01-24T00:20:07.295Z,690.00
2024-01-24T00:21:07.297Z,687.00
2024-01-24T00:22:07.365Z,686.00
2024-01-24T00:23:07.260Z,685.00
2024-01-24T00:24:07.265Z,674.00
2024-01-24T00:25:07.242Z,680.00
2024-01-24T00:26:07.226Z,677.00
2024-01-24T00:27:07.234Z,683.00
2024-01-24T00:28:07.218Z,676.00
2024-01-24T00:29:07.226Z,675.00
2024-01-24T00:30:07.214Z,679.00
2024-01-24T00:31:07.216Z,677.00
2024-01-24T00:32:07.206Z,676.00
2024-01-24T00:33:07.210Z,679.00
2024-01-24T00:34:07.441Z,668.00
2024-01-24T00:35:07.181Z,677.00
2024-01-24T00:36:07.192Z,683.00
2024-01-24T00:37:07.167Z,680.00
2024-01-24T00:38:07.183Z,681.00
2024-01-24T00:39:07.166Z,683.00
2024-01-24T00:40:07.180Z,675.00
2024-01-24T00:41:07.160Z,676.00
2024-01-24T00:42:07.161Z,686.00
2024-01-24T00:43:07.139Z,688.00
2024-01-24T00:44:07.127Z,685.00
2024-01-24T00:45:07.172Z,690.00
2024-01-24T00:46:07.118Z,692.00
2024-01-24T00:47:07.103Z,684.00
2024-01-24T00:48:07.203Z,695.00
2024-01-24T00:49:07.170Z,685.00
2024-01-24T00:50:07.112Z,684.00
2024-01-24T00:51:07.098Z,685.00
2024-01-24T00:52:07.079Z,685.00
2024-01-24T00:53:07.075Z,677.00
2024-01-24T00:54:07.103Z,673.00
2024-01-24T00:55:07.077Z,677.00
2024-01-24T00:56:07.083Z,681.00
2024-01-24T00:57:07.092Z,679.00
2024-01-24T00:58:07.083Z,677.00
2024-01-24T00:59:07.061Z,676.00
2024-01-24T01:00:07.041Z,674.00
2024-01-24T01:01:07.154Z,679.00
2024-01-24T01:02:07.050Z,676.00
2024-01-24T01:03:07.075Z,680.00
2024-01-24T01:04:07.117Z,675.00
2024-01-24T01:05:07.050Z,678.00
2024-01-24T01:06:07.060Z,665.00
2024-01-24T01:07:07.048Z,669.00
2024-01-24T01:08:07.051Z,671.00
2024-01-24T01:09:07.083Z,665.00
2024-01-24T01:10:07.153Z,666.00
2024-01-24T01:11:07.074Z,671.00
2024-01-24T01:12:07.086Z,668.00
2024-01-24T01:13:07.086Z,667.00
2024-01-24T01:14:07.119Z,669.00
2024-01-24T01:15:07.123Z,665.00
2024-01-24T01:16:07.104Z,670.00
2024-01-24T01:17:07.105Z,666.00
2024-01-24T01:18:07.197Z,663.00
2024-01-24T01:19:07.212Z,664.00
2024-01-24T01:20:07.094Z,668.00
2024-01-24T01:21:07.091Z,666.00
2024-01-24T01:22:07.139Z,679.00
2024-01-24T01:23:07.077Z,675.00
2024-01-24T01:24:07.125Z,664.00
2024-01-24T01:25:07.101Z,672.00
2024-01-24T01:26:07.093Z,668.00
2024-01-24T01:27:07.104Z,663.00
2024-01-24T01:28:07.089Z,663.00
2024-01-24T01:29:07.112Z,661.00
2024-01-24T01:30:07.087Z,661.00
2024-01-24T01:31:07.095Z,657.00
2024-01-24T01:32:07.133Z,661.00
2024-01-24T01:33:07.226Z,656.00
2024-01-24T01:34:07.143Z,660.00
2024-01-24T01:35:07.078Z,657.00
2024-01-24T01:36:17.270Z,657.00
2024-01-24T01:37:08.143Z,658.00
2024-01-24T01:38:07.058Z,658.00
2024-01-24T01:39:07.085Z,658.00
2024-01-24T01:40:07.038Z,660.00
2024-01-24T01:41:07.009Z,659.00
2024-01-24T01:42:07.027Z,661.00
2024-01-24T01:43:07.845Z,658.00
2024-01-24T01:44:06.993Z,663.00
2024-01-24T01:45:07.006Z,660.00
2024-01-24T01:46:06.992Z,659.00
2024-01-24T01:47:06.982Z,659.00
2024-01-24T01:48:07.043Z,659.00
2024-01-24T01:49:07.096Z,659.00
2024-01-24T01:50:07.838Z,659.00
2024-01-24T01:51:06.946Z,659.00
2024-01-24T01:52:06.935Z,660.00
2024-01-24T01:53:06.915Z,658.00
2024-01-24T01:54:06.902Z,657.00
2024-01-24T01:55:06.917Z,659.00
2024-01-24T01:56:06.896Z,654.00
2024-01-24T01:57:06.902Z,656.00
2024-01-24T01:58:06.873Z,652.00
2024-01-24T01:59:06.863Z,654.00
2024-01-24T02:00:06.903Z,653.00
2024-01-24T02:01:06.974Z,650.00
2024-01-24T02:02:06.855Z,653.00
2024-01-24T02:03:06.931Z,650.00
2024-01-24T02:04:06.892Z,650.00
2024-01-24T02:05:06.797Z,650.00
2024-01-24T02:06:06.818Z,650.00
2024-01-24T02:07:06.889Z,650.00
2024-01-24T02:08:06.773Z,650.00
2024-01-24T02:09:06.829Z,650.00
2024-01-24T02:10:06.761Z,650.00
2024-01-24T02:11:06.747Z,650.00
2024-01-24T02:12:06.778Z,650.00
2024-01-24T02:13:06.789Z,650.00
2024-01-24T02:14:06.799Z,650.00
2024-01-24T02:15:06.844Z,650.00
2024-01-24T02:16:06.887Z,650.00
2024-01-24T02:17:06.911Z,650.00
2024-01-24T02:18:07.033Z,650.00
2024-01-24T02:19:07.102Z,650.00
2024-01-24T02:20:07.130Z,650.00
2024-01-24T02:21:07.020Z,650.00
2024-01-24T02:22:07.074Z,650.00
2024-01-24T02:23:07.083Z,650.00
2024-01-24T02:24:07.110Z,650.00
2024-01-24T02:25:07.133Z,650.00
2024-01-24T02:26:07.166Z,650.00
2024-01-24T02:27:07.229Z,650.00
2024-01-24T02:28:07.329Z,650.00
2024-01-24T02:29:07.273Z,650.00
2024-01-24T02:30:07.281Z,650.00
2024-01-24T02:31:07.302Z,650.00
2024-01-24T02:32:07.393Z,650.00
2024-01-24T02:33:07.437Z,650.00
2024-01-24T02:34:07.457Z,650.00
2024-01-24T02:35:07.410Z,650.00
2024-01-24T02:36:07.435Z,650.00
2024-01-24T02:37:07.490Z,650.00
2024-01-24T02:38:07.493Z,650.00
2024-01-24T02:39:07.543Z,650.00
2024-01-24T02:40:07.604Z,650.00
2024-01-24T02:41:07.603Z,650.00
2024-01-24T02:42:07.641Z,650.00
2024-01-24T02:43:07.668Z,650.00
2024-01-24T02:44:07.691Z,650.00
2024-01-24T02:45:07.791Z,650.00
2024-01-24T02:46:07.677Z,650.00
2024-01-24T02:47:07.669Z,650.00
2024-01-24T02:48:07.692Z,650.00
2024-01-24T02:49:07.756Z,650.00
2024-01-24T02:50:07.619Z,650.00
2024-01-24T02:51:07.627Z,650.00
2024-01-24T02:52:07.602Z,650.00
2024-01-24T02:53:07.589Z,650.00
2024-01-24T02:54:07.555Z,650.00
2024-01-24T02:55:07.559Z,650.00
2024-01-24T02:56:07.535Z,650.00
2024-01-24T02:57:07.544Z,650.00
2024-01-24T02:58:07.530Z,650.00
2024-01-24T02:59:07.532Z,650.00
2024-01-24T03:00:07.520Z,650.00
2024-01-24T03:01:07.685Z,650.00
2024-01-24T03:02:07.502Z,650.00
2024-01-24T03:03:07.536Z,650.00
2024-01-24T03:04:07.562Z,650.00
2024-01-24T03:05:07.476Z,650.00
2024-01-24T03:06:07.479Z,650.00
2024-01-24T03:07:07.526Z,650.00
2024-01-24T03:08:07.476Z,650.00
2024-01-24T03:09:07.430Z,650.00
2024-01-24T03:10:07.397Z,650.00
2024-01-24T03:11:07.392Z,650.00
2024-01-24T03:12:07.397Z,650.00
2024-01-24T03:13:07.463Z,650.00
2024-01-24T03:14:07.359Z,650.00
2024-01-24T03:15:07.395Z,650.00
2024-01-24T03:16:07.330Z,650.00
2024-01-24T03:17:07.324Z,650.00
2024-01-24T03:18:07.389Z,650.00
2024-01-24T03:19:07.430Z,650.00
2024-01-24T03:20:07.297Z,650.00
2024-01-24T03:21:07.290Z,650.00
2024-01-24T03:22:07.279Z,650.00
2024-01-24T03:23:07.257Z,650.00
2024-01-24T03:24:07.866Z,650.00
2024-01-24T03:25:07.243Z,650.00
2024-01-24T03:26:07.242Z,650.00
2024-01-24T03:27:07.204Z,650.00
2024-01-24T03:28:07.197Z,650.00
2024-01-24T03:29:07.189Z,650.00
2024-01-24T03:30:07.199Z,650.00
2024-01-24T03:31:07.173Z,650.00
2024-01-24T03:32:07.156Z,650.00
2024-01-24T03:33:07.242Z,650.00
2024-01-24T03:34:07.339Z,650.00
2024-01-24T03:35:07.286Z,650.00
2024-01-24T03:36:07.111Z,650.00
2024-01-24T03:37:07.103Z,650.00
2024-01-24T03:38:07.085Z,650.00
2024-01-24T03:39:07.090Z,650.00
2024-01-24T03:40:07.050Z,650.00
2024-01-24T03:41:07.054Z,650.00
2024-01-24T03:42:07.064Z,650.00
2024-01-24T03:43:07.025Z,650.00
2024-01-24T03:44:07.154Z,650.00
2024-01-24T03:45:06.993Z,650.00
2024-01-24T03:46:06.999Z,650.00
2024-01-24T03:47:06.974Z,650.00
2024-01-24T03:48:07.047Z,650.00
2024-01-24T03:49:07.072Z,650.00
2024-01-24T03:50:06.937Z,650.00
2024-01-24T03:51:06.943Z,650.00
2024-01-24T03:52:06.964Z,650.00
2024-01-24T03:53:06.992Z,650.00
2024-01-24T03:54:07.054Z,650.00
2024-01-24T03:55:07.043Z,650.00
2024-01-24T03:56:07.073Z,650.00
2024-01-24T03:57:07.083Z,650.00
2024-01-24T03:58:07.102Z,650.00
2024-01-24T03:59:07.155Z,650.00
2024-01-24T04:00:07.234Z,650.00
2024-01-24T04:01:07.294Z,650.00
2024-01-24T04:02:09.241Z,650.00
2024-01-24T04:03:07.256Z,650.00
2024-01-24T04:04:07.364Z,650.00
2024-01-24T04:05:07.303Z,650.00
2024-01-24T04:06:07.363Z,650.00
2024-01-24T04:07:07.421Z,650.00
2024-01-24T04:08:07.374Z,650.00
2024-01-24T04:09:07.397Z,650.00
2024-01-24T04:10:07.438Z,650.00
2024-01-24T04:11:07.459Z,650.00
2024-01-24T04:12:07.478Z,650.00
2024-01-24T04:13:07.504Z,650.00
2024-01-24T04:14:07.725Z,650.00
2024-01-24T04:15:07.574Z,650.00
2024-01-24T04:16:07.653Z,650.00
2024-01-24T04:17:07.616Z,650.00
2024-01-24T04:18:07.746Z,650.00
2024-01-24T04:19:07.787Z,650.00
2024-01-24T04:20:07.720Z,650.00
2024-01-24T04:21:07.739Z,650.00
2024-01-24T04:22:07.776Z,650.00
2024-01-24T04:23:07.803Z,650.00
2024-01-24T04:24:07.851Z,650.00
2024-01-24T04:25:07.859Z,650.00
2024-01-24T04:26:07.838Z,650.00
2024-01-24T04:27:07.869Z,650.00
2024-01-24T04:28:07.826Z,650.00
2024-01-24T04:29:10.826Z,650.00
2024-01-24T04:30:08.790Z,650.00
2024-01-24T04:31:16.028Z,600.00
2024-01-24T04:32:16.032Z,600.00
2024-01-24T04:33:16.168Z,600.00
2024-01-24T04:34:16.087Z,600.00
2024-01-24T04:35:16.029Z,600.00
2024-01-24T04:36:16.062Z,506.00
2024-01-24T04:37:16.063Z,423.00
2024-01-24T04:38:16.053Z,400.00
2024-01-24T04:39:16.078Z,400.00
2024-01-24T04:40:16.060Z,400.00
2024-01-24T04:41:16.050Z,400.00
2024-01-24T04:42:17.164Z,400.00
2024-01-24T04:43:16.047Z,400.00
2024-01-24T04:44:16.329Z,400.00
2024-01-24T04:45:16.073Z,400.00
2024-01-24T04:46:16.043Z,400.00
2024-01-24T04:47:16.052Z,400.00
2024-01-24T04:48:16.122Z,400.00
2024-01-24T04:49:26.377Z,400.00
2024-01-24T04:50:17.169Z,400.00
2024-01-24T04:51:16.091Z,400.00
2024-01-24T04:52:16.100Z,400.00
2024-01-24T04:53:16.105Z,400.00
2024-01-24T04:54:16.135Z,400.00
2024-01-24T04:55:16.097Z,400.00
2024-01-24T04:56:16.115Z,400.00
2024-01-24T04:57:16.119Z,400.00
2024-01-24T04:58:16.087Z,400.00
2024-01-24T04:59:16.095Z,400.00
2024-01-24T05:00:16.154Z,400.00
2024-01-24T05:01:16.224Z,400.00
2024-01-24T05:02:16.221Z,425.00
2024-01-24T05:03:16.299Z,455.00
2024-01-24T05:04:16.387Z,486.00
2024-01-24T05:05:16.397Z,518.00
2024-01-24T05:06:16.527Z,548.00
2024-01-24T05:07:16.685Z,580.00
2024-01-24T05:08:16.530Z,600.00
2024-01-24T05:09:16.615Z,601.00
2024-01-24T05:10:16.635Z,602.00
2024-01-24T05:11:16.694Z,602.00
2024-01-24T05:12:16.812Z,601.00
2024-01-24T05:13:16.823Z,600.00
2024-01-24T05:14:16.890Z,599.00
2024-01-24T05:15:16.983Z,600.00
2024-01-24T05:16:17.033Z,602.00
2024-01-24T05:17:17.146Z,604.00
2024-01-24T05:18:17.308Z,600.00
2024-01-24T05:19:17.452Z,602.00
2024-01-24T05:20:17.337Z,601.00
2024-01-24T05:21:17.396Z,603.00
2024-01-24T05:22:17.467Z,602.00
2024-01-24T05:23:17.551Z,603.00
2024-01-24T05:24:17.619Z,601.00
2024-01-24T05:25:17.680Z,602.00
2024-01-24T05:26:17.723Z,604.00
2024-01-24T05:27:17.872Z,602.00
2024-01-24T05:28:17.868Z,600.00
2024-01-24T05:29:17.925Z,600.00
2024-01-24T05:30:29.512Z,606.00
2024-01-24T05:31:19.019Z,606.00
2024-01-24T05:32:18.041Z,606.00
2024-01-24T05:33:18.060Z,605.00
2024-01-24T05:34:18.078Z,603.00
2024-01-24T05:35:18.035Z,605.00
2024-01-24T05:36:18.007Z,603.00
2024-01-24T05:37:17.992Z,606.00
2024-01-24T05:38:18.035Z,605.00
2024-01-24T05:39:18.043Z,604.00
2024-01-24T05:40:18.035Z,604.00
2024-01-24T05:41:18.041Z,602.00
2024-01-24T05:42:18.110Z,603.00
2024-01-24T05:43:18.106Z,603.00
2024-01-24T05:44:18.161Z,604.00
2024-01-24T05:45:18.222Z,601.00
2024-01-24T05:46:18.265Z,602.00
2024-01-24T05:47:18.364Z,606.00
2024-01-24T05:48:18.574Z,601.00
2024-01-24T05:49:18.560Z,605.00
2024-01-24T05:50:18.536Z,605.00
2024-01-24T05:51:18.580Z,604.00
2024-01-24T05:52:18.593Z,607.00
2024-01-24T05:53:18.653Z,607.00
2024-01-24T05:54:18.741Z,602.00
2024-01-24T05:55:19.674Z,606.00
2024-01-24T05:56:18.793Z,602.00
2024-01-24T05:57:18.903Z,603.00
2024-01-24T05:58:18.905Z,605.00
2024-01-24T05:59:18.934Z,607.00
2024-01-24T06:00:19.136Z,605.00
2024-01-24T06:01:19.311Z,607.00
2024-01-24T06:02:19.142Z,609.00
2024-01-24T06:03:19.692Z,608.00
2024-01-24T06:04:19.419Z,611.00
2024-01-24T06:05:19.494Z,609.00
2024-01-24T06:06:19.545Z,613.00
2024-01-24T06:07:19.585Z,607.00
2024-01-24T06:08:19.585Z,611.00
2024-01-24T06:09:19.654Z,610.00
2024-01-24T06:10:19.729Z,610.00
2024-01-24T06:11:19.792Z,609.00
2024-01-24T06:12:19.909Z,610.00
2024-01-24T06:13:19.922Z,611.00
2024-01-24T06:14:20.004Z,607.00
2024-01-24T06:15:20.146Z,610.00
2024-01-24T06:16:20.157Z,606.00
2024-01-24T06:17:20.252Z,608.00
2024-01-24T06:18:20.426Z,608.00
2024-01-24T06:19:20.433Z,606.00
2024-01-24T06:20:20.420Z,609.00
2024-01-24T06:21:20.522Z,607.00
2024-01-24T06:22:20.631Z,611.00
2024-01-24T06:23:20.621Z,610.00
2024-01-24T06:24:21.945Z,612.00
2024-01-24T06:25:20.711Z,610.00
2024-01-24T06:26:21.675Z,613.00
2024-01-24T06:27:21.215Z,613.00
2024-01-24T06:28:20.782Z,610.00
2024-01-24T06:30:14.749Z,601.00
2024-01-24T06:30:23.895Z,591.00
2024-01-24T06:31:20.913Z,595.00
2024-01-24T06:32:21.216Z,593.00
2024-01-24T06:33:20.836Z,587.00
2024-01-24T06:34:20.987Z,584.00
2024-01-24T06:35:20.942Z,578.00
2024-01-24T06:36:20.776Z,602.00
2024-01-24T06:37:20.900Z,602.00
2024-01-24T06:38:20.874Z,602.00
2024-01-24T06:39:20.810Z,600.00
2024-01-24T06:40:21.009Z,603.00
2024-01-24T06:41:20.784Z,606.00
2024-01-24T06:42:20.853Z,615.00
2024-01-24T06:43:21.168Z,620.00
2024-01-24T06:44:20.821Z,627.00
2024-01-24T06:45:20.990Z,630.00
2024-01-24T06:46:20.793Z,632.00
2024-01-24T06:47:20.813Z,632.00
2024-01-24T06:48:20.860Z,636.00
2024-01-24T06:49:20.868Z,640.00
2024-01-24T06:50:20.871Z,643.00
2024-01-24T06:51:20.897Z,642.00
2024-01-24T06:52:20.885Z,640.00
2024-01-24T06:53:20.810Z,644.00
2024-01-24T06:54:20.865Z,649.00
2024-01-24T06:55:20.934Z,648.00
2024-01-24T06:56:20.808Z,653.00
2024-01-24T06:57:20.945Z,656.00
2024-01-24T06:58:20.904Z,659.00
2024-01-24T06:59:20.940Z,659.00
2024-01-24T07:00:21.007Z,659.00
2024-01-24T07:01:21.088Z,664.00
2024-01-24T07:02:21.142Z,669.00
2024-01-24T07:03:23.474Z,665.00
2024-01-24T07:04:21.551Z,682.00
2024-01-24T07:05:21.457Z,688.00
2024-01-24T07:06:21.578Z,701.00
2024-01-24T07:07:21.622Z,694.00
2024-01-24T07:08:21.589Z,703.00
2024-01-24T07:09:21.712Z,701.00
2024-01-24T07:10:21.694Z,717.00
2024-01-24T07:11:21.748Z,722.00
2024-01-24T07:12:21.959Z,730.00
2024-01-24T07:13:21.837Z,735.00
2024-01-24T07:14:21.872Z,738.00
2024-01-24T07:15:21.968Z,740.00
2024-01-24T07:16:22.009Z,736.00
2024-01-24T07:17:22.146Z,747.00
2024-01-24T07:18:22.189Z,753.00
2024-01-24T07:19:22.245Z,768.00
2024-01-24T07:20:22.153Z,765.00
2024-01-24T07:21:22.260Z,764.00
2024-01-24T07:22:22.237Z,767.00
2024-01-24T07:23:22.290Z,766.00
2024-01-24T07:24:22.373Z,771.00
2024-01-24T07:25:22.449Z,774.00
2024-01-24T07:26:22.432Z,773.00
2024-01-24T07:27:22.530Z,780.00
2024-01-24T07:28:22.499Z,783.00
2024-01-24T07:29:22.537Z,787.00
2024-01-24T07:30:22.607Z,782.00
2024-01-24T07:31:23.278Z,785.00
2024-01-24T07:32:22.724Z,795.00
2024-01-24T07:33:25.340Z,795.00
2024-01-24T07:34:22.890Z,791.00
2024-01-24T07:35:22.705Z,792.00
2024-01-24T07:36:22.700Z,787.00
2024-01-24T07:37:22.727Z,796.00
2024-01-24T07:38:22.692Z,809.00
2024-01-24T07:39:22.727Z,811.00
2024-01-24T07:40:22.684Z,810.00
2024-01-24T07:41:22.699Z,817.00
2024-01-24T07:42:22.741Z,819.00
2024-01-24T07:43:22.710Z,817.00
2024-01-24T07:44:22.699Z,826.00
2024-01-24T07:45:22.704Z,823.00
2024-01-24T07:46:22.693Z,836.00
2024-01-24T07:47:22.691Z,838.00
2024-01-24T07:48:22.765Z,858.00
2024-01-24T07:49:22.829Z,875.00
2024-01-24T07:50:22.679Z,884.00
2024-01-24T07:51:22.738Z,885.00
2024-01-24T07:52:32.170Z,901.00
2024-01-24T07:53:23.687Z,901.00
2024-01-24T07:54:22.746Z,902.00
2024-01-24T07:55:28.572Z,900.00
2024-01-24T07:56:26.223Z,901.00
2024-01-24T07:57:22.733Z,901.00
2024-01-24T07:58:22.827Z,903.00
2024-01-24T07:59:22.640Z,903.00
2024-01-24T08:00:22.693Z,905.00
2024-01-24T08:01:23.114Z,910.00
2024-01-24T08:02:22.648Z,918.00
2024-01-24T08:03:22.677Z,915.00
2024-01-24T08:04:22.780Z,908.00
2024-01-24T08:05:22.615Z,907.00
2024-01-24T08:06:23.077Z,903.00
2024-01-24T08:07:22.623Z,905.00
2024-01-24T08:08:22.590Z,914.00
2024-01-24T08:09:22.635Z,905.00
2024-01-24T08:10:22.588Z,911.00
2024-01-24T08:11:22.618Z,911.00
2024-01-24T08:12:22.594Z,913.00
2024-01-24T08:13:22.558Z,912.00
2024-01-24T08:14:22.569Z,920.00
2024-01-24T08:15:22.612Z,914.00
2024-01-24T08:16:22.544Z,912.00
2024-01-24T08:17:22.854Z,909.00
2024-01-24T08:18:22.712Z,912.00
2024-01-24T08:19:22.575Z,911.00
2024-01-24T08:20:22.537Z,918.00
2024-01-24T08:21:22.545Z,916.00
2024-01-24T08:22:22.509Z,931.00
2024-01-24T08:23:26.672Z,919.00
2024-01-24T08:24:23.515Z,920.00
2024-01-24T08:25:22.477Z,920.00
2024-01-24T08:26:22.477Z,905.00
2024-01-24T08:27:22.815Z,863.00
2024-01-24T08:28:22.518Z,853.00
2024-01-24T08:29:29.713Z,840.00
2024-01-24T08:30:23.490Z,841.00
2024-01-24T08:31:22.466Z,844.00
2024-01-24T08:32:22.440Z,855.00
2024-01-24T08:33:22.526Z,872.00
2024-01-24T08:34:22.461Z,902.00
2024-01-24T08:35:22.427Z,898.00
2024-01-24T08:36:22.480Z,901.00
2024-01-24T08:37:22.391Z,906.00
2024-01-24T08:38:22.382Z,890.00
2024-01-24T08:39:22.381Z,890.00
2024-01-24T08:40:22.438Z,877.00
2024-01-24T08:41:22.384Z,884.00
2024-01-24T08:42:22.454Z,871.00
2024-01-24T08:43:22.381Z,863.00
2024-01-24T08:44:22.382Z,875.00
2024-01-24T08:45:22.371Z,867.00
2024-01-24T08:46:22.336Z,863.00
2024-01-24T08:47:22.339Z,858.00
2024-01-24T08:48:22.473Z,873.00
2024-01-24T08:49:22.437Z,869.00
2024-01-24T08:50:22.316Z,876.00
2024-01-24T08:51:22.360Z,877.00
2024-01-24T08:52:22.349Z,875.00
2024-01-24T08:53:22.394Z,870.00
2024-01-24T08:54:22.434Z,867.00
2024-01-24T08:55:22.379Z,879.00
2024-01-24T08:56:22.401Z,875.00
2024-01-24T08:57:22.784Z,875.00
2024-01-24T08:58:22.445Z,887.00
2024-01-24T08:59:22.464Z,879.00
2024-01-24T09:00:22.540Z,870.00
2024-01-24T09:01:22.606Z,884.00
2024-01-24T09:02:22.752Z,890.00
2024-01-24T09:03:22.552Z,889.00
2024-01-24T09:04:22.579Z,889.00
2024-01-24T09:05:22.604Z,888.00
2024-01-24T09:06:22.467Z,893.00
2024-01-24T09:07:22.448Z,898.00
2024-01-24T09:08:22.449Z,875.00
2024-01-24T09:09:22.652Z,886.00
2024-01-24T09:10:22.508Z,889.00
2024-01-24T09:11:23.414Z,901.00
2024-01-24T09:12:22.444Z,901.00
2024-01-24T09:13:22.394Z,901.00
2024-01-24T09:14:22.370Z,903.00
2024-01-24T09:15:22.441Z,899.00
2024-01-24T09:16:22.375Z,892.00
2024-01-24T09:17:22.360Z,897.00
2024-01-24T09:18:22.464Z,893.00
2024-01-24T09:19:22.463Z,891.00
2024-01-24T09:20:22.914Z,894.00
2024-01-24T09:21:22.376Z,885.00
2024-01-24T09:22:22.317Z,878.00
2024-01-24T09:23:22.304Z,877.00
2024-01-24T09:24:22.287Z,885.00
2024-01-24T09:25:22.323Z,885.00
2024-01-24T09:26:22.312Z,884.00
2024-01-24T09:27:22.337Z,867.00
2024-01-24T09:28:22.330Z,830.00
2024-01-24T09:29:22.332Z,794.00
2024-01-24T09:30:22.386Z,757.00
2024-01-24T09:31:22.420Z,735.00
2024-01-24T09:32:22.378Z,712.00
2024-01-24T09:33:22.539Z,679.00
2024-01-24T09:34:22.599Z,660.00
2024-01-24T09:35:23.020Z,653.00
2024-01-24T09:36:23.298Z,636.00
2024-01-24T09:37:22.766Z,628.00
2024-01-24T09:38:22.508Z,619.00
2024-01-24T09:39:22.578Z,611.00
2024-01-24T09:40:22.609Z,602.00
2024-01-24T09:41:22.568Z,600.00
2024-01-24T09:42:22.668Z,600.00
2024-01-24T09:43:22.611Z,598.00
2024-01-24T09:44:22.670Z,609.00
2024-01-24T09:45:22.721Z,604.00
2024-01-24T09:46:22.760Z,603.00
2024-01-24T09:47:23.288Z,605.00
2024-01-24T09:48:22.985Z,611.00
2024-01-24T09:49:22.937Z,611.00
2024-01-24T09:50:22.917Z,621.00
2024-01-24T09:51:22.986Z,628.00
2024-01-24T09:52:22.991Z,639.00
2024-01-24T09:53:22.981Z,648.00
2024-01-24T09:54:23.041Z,654.00
2024-01-24T09:55:23.078Z,653.00
2024-01-24T09:56:23.216Z,659.00
2024-01-24T09:57:23.285Z,651.00
2024-01-24T09:58:23.387Z,660.00
2024-01-24T09:59:23.371Z,672.00
2024-01-24T10:00:23.448Z,666.00
2024-01-24T10:01:23.588Z,675.00
2024-01-24T10:02:23.546Z,672.00
2024-01-24T10:03:23.586Z,698.00
2024-01-24T10:04:23.736Z,709.00
2024-01-24T10:05:23.672Z,716.00
2024-01-24T10:06:23.778Z,721.00
2024-01-24T10:07:23.846Z,722.00
2024-01-24T10:08:23.791Z,721.00
2024-01-24T10:09:23.860Z,723.00
2024-01-24T10:10:23.843Z,739.00
2024-01-24T10:11:23.889Z,744.00
2024-01-24T10:12:23.958Z,747.00
2024-01-24T10:13:23.909Z,750.00
2024-01-24T10:14:23.910Z,752.00
2024-01-24T10:15:23.967Z,754.00
2024-01-24T10:16:23.937Z,754.00
2024-01-24T10:17:23.952Z,760.00
2024-01-24T10:18:24.014Z,763.00
2024-01-24T10:19:24.038Z,770.00
2024-01-24T10:20:23.935Z,765.00
2024-01-24T10:21:24.093Z,753.00
2024-01-24T10:22:24.325Z,771.00
2024-01-24T10:23:23.946Z,784.00
2024-01-24T10:24:24.033Z,771.00
2024-01-24T10:25:23.987Z,767.00
2024-01-24T10:26:24.075Z,779.00
2024-01-24T10:27:24.410Z,772.00
2024-01-24T10:28:24.015Z,756.00
2024-01-24T10:29:24.038Z,751.00
2024-01-24T10:30:24.024Z,775.00
2024-01-24T10:31:24.003Z,775.00
2024-01-24T10:32:24.286Z,792.00
2024-01-24T10:33:24.291Z,797.00
2024-01-24T10:34:24.105Z,814.00
2024-01-24T10:35:24.126Z,837.00
2024-01-24T10:36:27.762Z,838.00
2024-01-24T10:37:25.380Z,839.00
2024-01-24T10:38:23.965Z,841.00
2024-01-24T10:39:24.009Z,841.00
2024-01-24T10:40:23.960Z,849.00
2024-01-24T10:41:23.952Z,836.00
2024-01-24T10:42:24.015Z,839.00
2024-01-24T10:43:23.978Z,831.00
2024-01-24T10:44:23.942Z,840.00
2024-01-24T10:45:24.210Z,841.00
2024-01-24T10:46:23.978Z,839.00
2024-01-24T10:47:24.018Z,842.00
2024-01-24T10:48:24.400Z,839.00
2024-01-24T10:49:24.089Z,836.00
2024-01-24T10:50:23.965Z,845.00
2024-01-24T10:51:24.008Z,855.00
2024-01-24T10:52:23.921Z,864.00
2024-01-24T10:53:23.977Z,869.00
2024-01-24T10:54:23.961Z,871.00
2024-01-24T10:55:23.934Z,876.00
2024-01-24T10:56:23.899Z,875.00
2024-01-24T10:57:23.913Z,869.00
2024-01-24T10:58:23.886Z,878.00
2024-01-24T10:59:23.863Z,879.00
2024-01-24T11:00:24.028Z,893.00
2024-01-24T11:01:23.990Z,901.00
2024-01-24T11:02:23.839Z,909.00
2024-01-24T11:03:23.931Z,915.00
2024-01-24T11:04:23.903Z,904.00
2024-01-24T11:05:23.896Z,904.00
2024-01-24T11:06:23.805Z,896.00
2024-01-24T11:07:23.772Z,901.00
2024-01-24T11:08:35.908Z,884.00
2024-01-24T11:09:24.892Z,883.00
2024-01-24T11:10:23.876Z,873.00
2024-01-24T11:11:24.004Z,870.00
2024-01-24T11:12:24.101Z,835.00
2024-01-24T11:13:24.053Z,801.00
2024-01-24T11:14:24.048Z,763.00
2024-01-24T11:15:24.168Z,750.00
2024-01-24T11:16:24.077Z,719.00
2024-01-24T11:17:24.106Z,695.00
2024-01-24T11:18:24.352Z,699.00
2024-01-24T11:19:24.540Z,681.00
2024-01-24T11:20:24.217Z,665.00
2024-01-24T11:21:24.302Z,659.00
2024-01-24T11:22:29.665Z,655.00
2024-01-24T11:23:25.793Z,655.00
2024-01-24T11:24:24.325Z,656.00
2024-01-24T11:25:24.324Z,660.00
2024-01-24T11:26:24.328Z,686.00
2024-01-24T11:27:24.353Z,750.00
2024-01-24T11:28:24.787Z,788.00
2024-01-24T11:29:24.323Z,815.00
2024-01-24T11:30:24.393Z,833.00
2024-01-24T11:31:24.365Z,792.00
2024-01-24T11:32:24.354Z,765.00
2024-01-24T11:33:24.456Z,742.00
2024-01-24T11:34:24.422Z,749.00
2024-01-24T11:35:24.339Z,764.00
2024-01-24T11:36:24.417Z,781.00
2024-01-24T11:37:24.337Z,797.00
2024-01-24T11:38:26.798Z,790.00
2024-01-24T11:39:24.426Z,790.00
2024-01-24T11:40:24.342Z,786.00
2024-01-24T11:41:24.345Z,790.00
2024-01-24T11:42:24.370Z,789.00
2024-01-24T11:43:24.327Z,782.00
2024-01-24T11:44:24.309Z,782.00
2024-01-24T11:45:24.337Z,794.00
2024-01-24T11:46:24.375Z,787.00
2024-01-24T11:47:24.395Z,792.00
2024-01-24T11:48:24.423Z,791.00
2024-01-24T11:49:24.364Z,784.00
2024-01-24T11:50:24.296Z,799.00
2024-01-24T11:51:24.297Z,794.00
2024-01-24T11:52:24.286Z,802.00
2024-01-24T11:53:24.272Z,811.00
2024-01-24T11:54:24.358Z,814.00
2024-01-24T11:55:24.280Z,809.00
2024-01-24T11:56:26.155Z,811.00
2024-01-24T11:57:24.302Z,817.00
2024-01-24T11:58:24.244Z,822.00
2024-01-24T11:59:24.224Z,833.00
2024-01-24T12:00:24.260Z,832.00
2024-01-24T12:01:24.232Z,806.00
2024-01-24T12:02:24.242Z,798.00
2024-01-24T12:03:24.224Z,778.00
2024-01-24T12:04:24.345Z,784.00
2024-01-24T12:05:24.193Z,785.00
2024-01-24T12:06:24.275Z,794.00
2024-01-24T12:07:24.237Z,734.00
2024-01-24T12:08:24.218Z,685.00
2024-01-24T12:09:24.277Z,657.00
2024-01-24T12:10:24.239Z,648.00
2024-01-24T12:11:24.248Z,635.00
2024-01-24T12:12:25.342Z,625.00
2024-01-24T12:13:24.400Z,625.00
2024-01-24T12:14:24.295Z,624.00
2024-01-24T12:15:24.366Z,629.00
2024-01-24T12:16:24.291Z,635.00
2024-01-24T12:17:24.309Z,647.00
2024-01-24T12:18:24.461Z,657.00
2024-01-24T12:19:24.487Z,665.00
2024-01-24T12:20:24.562Z,662.00
2024-01-24T12:21:25.622Z,664.00
2024-01-24T12:22:24.376Z,660.00
2024-01-24T12:23:24.340Z,652.00
2024-01-24T12:24:24.352Z,649.00
2024-01-24T12:25:24.327Z,644.00
2024-01-24T12:26:24.341Z,642.00
2024-01-24T12:27:24.351Z,638.00
2024-01-24T12:28:24.994Z,636.00